createdAt,value
2019-02-24T00:01:52.130Z,97.00
2019-02-24T00:04:21.894Z,96.80
2019-02-24T00:06:51.812Z,96.80
2019-02-24T00:09:21.740Z,96.90
2019-02-24T00:11:51.587Z,97.00
2019-02-24T00:14:21.469Z,97.00
2019-02-24T00:16:51.393Z,97.10
2019-02-24T00:19:21.226Z,97.10
2019-02-24T00:21:51.118Z,97.20
2019-02-24T00:24:21.008Z,97.20
2019-02-24T00:26:51.056Z,97.20
2019-02-24T00:29:20.884Z,97.20
2019-02-24T00:31:50.743Z,97.30
2019-02-24T00:34:20.675Z,97.40
2019-02-24T00:36:50.574Z,97.40
2019-02-24T00:39:20.426Z,97.40
2019-02-24T00:41:50.266Z,97.40
2019-02-24T00:44:20.010Z,97.50
2019-02-24T00:46:50.540Z,97.40
2019-02-24T00:49:20.335Z,97.40
2019-02-24T00:51:50.119Z,97.40
2019-02-24T00:54:19.855Z,97.40
2019-02-24T00:56:49.666Z,97.50
2019-02-24T00:59:19.588Z,97.50
2019-02-24T01:01:49.565Z,97.50
2019-02-24T01:04:19.575Z,97.50
2019-02-24T01:06:49.569Z,97.40
2019-02-24T01:09:19.546Z,97.40
2019-02-24T01:11:49.551Z,97.30
2019-02-24T01:14:19.431Z,97.30
2019-02-24T01:16:49.407Z,97.20
2019-02-24T01:19:19.402Z,97.10
2019-02-24T01:21:49.299Z,97.00
2019-02-24T01:24:19.275Z,96.70
2019-02-24T01:26:49.131Z,96.80
2019-02-24T01:29:18.899Z,96.20
2019-02-24T01:31:48.628Z,96.00
2019-02-24T01:34:18.420Z,95.70
2019-02-24T01:36:48.205Z,95.60
2019-02-24T01:39:17.903Z,95.60
2019-02-24T01:41:47.683Z,95.60
2019-02-24T01:44:17.493Z,95.60
2019-02-24T01:46:47.204Z,95.40
2019-02-24T01:49:16.993Z,95.60
2019-02-24T01:51:46.732Z,95.70
2019-02-24T01:54:16.547Z,95.90
2019-02-24T01:56:46.355Z,95.90
2019-02-24T01:59:16.166Z,95.80
2019-02-24T02:01:45.877Z,95.70
2019-02-24T02:04:15.605Z,95.60
2019-02-24T02:06:45.357Z,95.70
2019-02-24T02:09:15.151Z,95.60
2019-02-24T02:11:44.941Z,95.70
2019-02-24T02:14:14.695Z,95.70
2019-02-24T02:16:44.828Z,95.80
2019-02-24T02:19:14.761Z,96.20
2019-02-24T02:21:44.695Z,95.90
2019-02-24T02:24:14.685Z,96.10
2019-02-24T02:26:44.492Z,96.30
2019-02-24T02:29:14.457Z,96.30
2019-02-24T02:31:44.356Z,96.30
2019-02-24T02:34:14.151Z,96.40
2019-02-24T02:36:43.997Z,96.50
2019-02-24T02:42:46.101Z,96.70
2019-02-24T02:45:15.896Z,96.60
2019-02-24T02:47:45.786Z,96.50
2019-02-24T02:50:15.589Z,96.50
2019-02-24T02:52:45.350Z,96.40
2019-02-24T02:55:15.595Z,96.40
2019-02-24T02:57:45.429Z,96.40
2019-02-24T03:00:29.224Z,96.30
2019-02-24T03:02:59.244Z,96.40
2019-02-24T03:05:29.112Z,96.60
2019-02-24T03:08:10.592Z,96.70
2019-02-24T03:10:40.548Z,96.70
2019-02-24T03:13:10.540Z,96.80
2019-02-24T03:15:40.556Z,96.90
2019-02-24T03:18:10.528Z,96.80
2019-02-24T03:20:40.418Z,96.90
2019-02-24T03:23:10.435Z,96.90
2019-02-24T03:25:40.398Z,97.00
2019-02-24T03:28:10.320Z,97.10
2019-02-24T03:30:40.176Z,97.10
2019-02-24T03:33:10.011Z,97.10
2019-02-24T03:35:39.758Z,97.00
2019-02-24T03:38:09.716Z,97.00
2019-02-24T03:40:39.576Z,97.00
2019-02-24T03:43:09.485Z,97.10
2019-02-24T03:45:41.324Z,97.10
2019-02-24T03:48:11.080Z,97.10
2019-02-24T03:50:40.817Z,97.20
2019-02-24T03:53:10.574Z,97.10
2019-02-24T03:55:40.285Z,97.10
2019-02-24T03:58:10.018Z,97.10
2019-02-24T04:00:39.800Z,97.10
2019-02-24T04:03:09.584Z,97.20
2019-02-24T04:05:39.400Z,97.20
2019-02-24T04:08:09.214Z,97.30
2019-02-24T04:10:39.033Z,97.40
2019-02-24T04:13:09.127Z,97.40
2019-02-24T04:15:38.992Z,97.40
2019-02-24T04:18:08.822Z,97.50
2019-02-24T04:20:38.704Z,97.50
2019-02-24T04:23:08.501Z,97.60
2019-02-24T04:25:38.238Z,97.50
2019-02-24T04:28:08.006Z,97.40
2019-02-24T04:30:37.792Z,97.30
2019-02-24T04:33:07.563Z,97.40
2019-02-24T04:35:37.514Z,97.40
2019-02-24T04:38:07.398Z,97.30
2019-02-24T04:40:37.205Z,97.20
2019-02-24T04:43:07.016Z,97.20
2019-02-24T04:45:36.805Z,97.30
2019-02-24T04:48:06.984Z,97.40
2019-02-24T04:50:36.947Z,97.40
2019-02-24T04:53:06.971Z,97.40
2019-02-24T04:55:36.759Z,97.30
2019-02-24T04:58:06.751Z,97.40
2019-02-24T05:00:36.668Z,97.40
2019-02-24T05:03:06.545Z,97.40
2019-02-24T05:05:36.353Z,97.40
2019-02-24T05:08:06.564Z,97.30
2019-02-24T05:10:36.410Z,97.20
2019-02-24T05:13:06.199Z,97.20
2019-02-24T05:15:36.051Z,97.20
2019-02-24T05:18:06.012Z,97.20
2019-02-24T05:20:37.077Z,97.30
2019-02-24T05:23:06.956Z,97.40
2019-02-24T05:25:36.706Z,97.40
2019-02-24T05:28:06.649Z,97.40
2019-02-24T05:30:36.769Z,97.40
2019-02-24T05:33:09.304Z,97.30
2019-02-24T05:35:39.208Z,97.40
2019-02-24T05:38:09.231Z,97.30
2019-02-24T05:40:42.500Z,97.40
2019-02-24T05:43:12.403Z,97.50
2019-02-24T05:45:42.283Z,97.50
2019-02-24T05:48:12.220Z,97.60
2019-02-24T05:50:42.082Z,97.70
2019-02-24T05:53:11.997Z,97.70
2019-02-24T05:55:42.446Z,97.80
2019-02-24T05:58:12.337Z,97.90
2019-02-24T06:00:42.193Z,97.90
2019-02-24T06:03:11.973Z,97.90
2019-02-24T06:05:41.764Z,98.00
2019-02-24T06:08:11.656Z,98.00
2019-02-24T06:10:41.530Z,98.00
2019-02-24T06:13:11.260Z,98.00
2019-02-24T06:15:41.076Z,98.10
2019-02-24T06:18:10.958Z,98.20
2019-02-24T06:20:40.810Z,98.30
2019-02-24T06:23:10.562Z,98.30
2019-02-24T06:25:40.295Z,98.30
2019-02-24T06:28:10.129Z,98.30
2019-02-24T06:30:40.029Z,98.30
2019-02-24T06:33:09.980Z,98.40
2019-02-24T06:35:39.848Z,98.30
2019-02-24T06:38:09.720Z,98.30
2019-02-24T06:40:39.648Z,98.30
2019-02-24T06:43:09.623Z,98.40
2019-02-24T06:45:39.461Z,98.40
2019-02-24T06:48:09.299Z,98.50
2019-02-24T06:51:00.559Z,98.50
2019-02-24T06:53:30.362Z,98.40
2019-02-24T06:56:01.036Z,98.50
2019-02-24T06:58:30.832Z,98.50
2019-02-24T07:01:00.698Z,98.40
2019-02-24T07:03:30.524Z,98.30
2019-02-24T07:06:00.420Z,98.20
2019-02-24T07:08:30.180Z,98.10
2019-02-24T07:11:00.429Z,97.90
2019-02-24T07:13:30.512Z,97.90
2019-02-24T07:16:00.814Z,98.00
2019-02-24T07:18:31.711Z,97.90
2019-02-24T07:21:02.859Z,97.90
2019-02-24T07:23:32.986Z,97.80
2019-02-24T07:26:02.809Z,97.80
2019-02-24T07:28:33.098Z,97.80
2019-02-24T07:31:02.865Z,97.70
2019-02-24T07:33:32.724Z,97.60
2019-02-24T07:36:02.576Z,97.50
2019-02-24T07:38:32.426Z,97.40
2019-02-24T07:41:02.259Z,97.10
2019-02-24T07:43:32.171Z,97.00
2019-02-24T07:46:02.011Z,97.00
2019-02-24T07:48:31.976Z,97.00
2019-02-24T07:51:01.969Z,97.00
2019-02-24T07:53:31.866Z,96.90
2019-02-24T07:56:01.842Z,96.80
2019-02-24T07:58:31.759Z,96.80
2019-02-24T08:01:01.678Z,96.70
2019-02-24T08:03:31.533Z,96.70
2019-02-24T08:06:01.307Z,96.60
2019-02-24T08:08:31.212Z,96.60
2019-02-24T08:11:01.018Z,96.40
2019-02-24T08:13:30.939Z,96.60
2019-02-24T08:16:00.812Z,96.10
2019-02-24T08:18:30.659Z,96.00
2019-02-24T08:21:00.657Z,95.70
2019-02-24T08:23:30.551Z,95.40
2019-02-24T08:26:00.488Z,95.20
2019-02-24T08:28:30.437Z,95.10
2019-02-24T08:31:00.299Z,95.40
2019-02-24T08:33:30.154Z,95.10
2019-02-24T08:35:59.972Z,95.10
2019-02-24T08:38:29.764Z,95.10
2019-02-24T08:40:59.582Z,95.20
2019-02-24T08:43:29.452Z,95.00
2019-02-24T08:45:59.434Z,94.90
2019-02-24T08:48:29.254Z,94.60
2019-02-24T08:50:59.004Z,94.40
2019-02-24T08:53:28.890Z,94.20
2019-02-24T08:55:58.750Z,94.00
2019-02-24T08:58:28.592Z,93.90
2019-02-24T09:00:58.472Z,93.80
2019-02-24T09:03:28.294Z,93.60
2019-02-24T09:05:58.154Z,93.30
2019-02-24T09:08:27.971Z,92.00
2019-02-24T09:10:57.878Z,92.20
2019-02-24T09:13:27.652Z,92.20
2019-02-24T09:15:57.492Z,92.30
2019-02-24T09:18:27.296Z,92.00
2019-02-24T09:20:57.141Z,91.90
2019-02-24T09:23:27.079Z,91.80
2019-02-24T09:25:56.974Z,91.80
2019-02-24T09:28:26.850Z,91.80
2019-02-24T09:31:00.796Z,91.80
2019-02-24T09:33:28.071Z,91.60
2019-02-24T09:35:59.524Z,91.80
2019-02-24T09:38:29.285Z,91.30
2019-02-24T09:41:01.175Z,90.80
2019-02-24T09:43:30.889Z,90.40
2019-02-24T09:46:00.819Z,90.10
2019-02-24T09:48:30.645Z,89.30
2019-02-24T09:51:00.509Z,88.10
2019-02-24T09:53:30.348Z,87.70
2019-02-24T09:56:00.451Z,87.50
2019-02-24T09:58:30.297Z,87.10
2019-02-24T10:01:00.252Z,86.50
2019-02-24T10:03:30.140Z,86.80
2019-02-24T10:06:00.011Z,87.30
2019-02-24T10:08:29.937Z,86.00
2019-02-24T10:10:59.899Z,85.90
2019-02-24T10:13:29.894Z,85.70
2019-02-24T10:15:59.752Z,85.80
2019-02-24T10:18:29.515Z,84.90
2019-02-24T10:20:59.327Z,84.70
2019-02-24T10:23:29.262Z,84.00
2019-02-24T10:25:59.019Z,83.40
2019-02-24T10:28:28.798Z,83.40
2019-02-24T10:30:58.609Z,83.00
2019-02-24T10:33:28.580Z,82.50
2019-02-24T10:35:58.494Z,82.20
2019-02-24T10:38:28.441Z,81.40
2019-02-24T10:40:58.390Z,81.70
2019-02-24T10:43:28.199Z,80.70
2019-02-24T10:45:58.037Z,78.20
2019-02-24T10:48:27.795Z,78.90
2019-02-24T10:50:57.631Z,79.00
2019-02-24T10:53:28.255Z,78.20
2019-02-24T10:55:58.323Z,77.20
2019-02-24T10:58:34.553Z,77.40
2019-02-24T11:00:59.889Z,77.20
2019-02-24T11:03:29.695Z,76.80
2019-02-24T11:05:59.563Z,76.20
2019-02-24T11:12:47.296Z,75.40
2019-02-24T11:15:18.775Z,75.00
2019-02-24T11:17:48.639Z,74.80
2019-02-24T11:20:18.525Z,70.10
2019-02-24T11:22:48.321Z,72.80
2019-02-24T11:25:18.581Z,72.70
2019-02-24T11:27:48.453Z,70.60
2019-02-24T11:30:18.238Z,72.00
2019-02-24T11:32:48.050Z,68.30
2019-02-24T11:35:17.964Z,66.20
2019-02-24T11:37:47.816Z,67.00
2019-02-24T11:40:17.690Z,67.20
2019-02-24T11:42:47.507Z,67.60
2019-02-24T11:45:17.271Z,67.50
2019-02-24T11:47:47.200Z,67.80
2019-02-24T11:50:16.984Z,65.40
2019-02-24T11:52:46.820Z,66.20
2019-02-24T11:55:16.588Z,65.80
2019-02-24T11:57:46.531Z,66.20
2019-02-24T12:00:16.736Z,64.70
2019-02-24T12:02:46.616Z,63.90
2019-02-24T12:05:16.605Z,64.10
2019-02-24T12:07:46.442Z,63.90
2019-02-24T12:10:16.274Z,64.30
2019-02-24T12:12:46.236Z,64.70
2019-02-24T12:15:16.092Z,64.60
2019-02-24T12:17:47.552Z,63.90
2019-02-24T12:20:17.449Z,62.90
2019-02-24T12:22:47.290Z,60.90
2019-02-24T12:25:17.096Z,61.50
2019-02-24T12:27:46.883Z,62.40
2019-02-24T12:30:16.877Z,62.30
2019-02-24T12:32:46.856Z,61.30
2019-02-24T12:35:16.685Z,59.80
2019-02-24T12:37:46.651Z,59.20
2019-02-24T12:40:16.519Z,60.10
2019-02-24T12:42:46.471Z,60.00
2019-02-24T12:45:16.315Z,58.80
2019-02-24T12:47:46.140Z,58.40
2019-02-24T12:50:16.021Z,58.00
2019-02-24T12:52:45.854Z,58.00
2019-02-24T12:55:15.788Z,57.20
2019-02-24T12:57:45.683Z,57.60
2019-02-24T13:00:18.020Z,57.60
2019-02-24T13:02:47.991Z,57.80
2019-02-24T13:05:17.898Z,58.00
2019-02-24T13:07:47.767Z,57.70
2019-02-24T13:10:17.622Z,57.60
2019-02-24T13:12:47.525Z,57.70
2019-02-24T13:15:17.351Z,56.50
2019-02-24T13:17:47.251Z,57.30
2019-02-24T13:20:17.211Z,57.70
2019-02-24T13:22:47.087Z,57.20
2019-02-24T13:25:16.996Z,57.20
2019-02-24T13:27:46.931Z,56.70
2019-02-24T13:30:17.545Z,55.80
2019-02-24T13:32:47.341Z,56.40
2019-02-24T13:35:17.208Z,56.20
2019-02-24T13:37:47.172Z,56.10
2019-02-24T13:40:17.122Z,56.30
2019-02-24T13:42:46.942Z,56.10
2019-02-24T13:45:16.891Z,56.20
2019-02-24T13:47:46.817Z,54.40
2019-02-24T13:50:16.683Z,55.40
2019-02-24T13:52:46.631Z,55.00
2019-02-24T13:55:16.423Z,55.20
2019-02-24T13:57:46.273Z,54.90
2019-02-24T14:00:16.783Z,54.10
2019-02-24T14:02:46.790Z,52.10
2019-02-24T14:05:16.572Z,54.00
2019-02-24T14:07:46.351Z,53.80
2019-02-24T14:10:16.275Z,53.80
2019-02-24T14:12:46.210Z,54.20
2019-02-24T14:15:16.155Z,53.90
2019-02-24T14:17:46.035Z,53.30
2019-02-24T14:20:15.839Z,53.80
2019-02-24T14:22:45.707Z,53.30
2019-02-24T14:25:15.637Z,52.40
2019-02-24T14:27:45.539Z,53.50
2019-02-24T14:30:15.409Z,53.90
2019-02-24T14:32:45.279Z,52.50
2019-02-24T14:35:15.512Z,53.30
2019-02-24T14:37:45.342Z,52.20
2019-02-24T14:40:15.249Z,52.50
2019-02-24T14:42:45.075Z,52.40
2019-02-24T14:45:15.978Z,52.00
2019-02-24T14:47:45.805Z,52.10
2019-02-24T14:50:15.616Z,52.20
2019-02-24T14:52:45.517Z,52.40
2019-02-24T14:55:15.404Z,52.50
2019-02-24T14:57:45.282Z,52.00
2019-02-24T15:00:15.976Z,51.80
2019-02-24T15:02:45.752Z,51.70
2019-02-24T15:05:16.664Z,51.20
2019-02-24T15:07:46.702Z,51.30
2019-02-24T15:10:17.188Z,50.90
2019-02-24T15:12:47.046Z,51.00
2019-02-24T15:15:18.418Z,50.70
2019-02-24T15:17:48.270Z,50.60
2019-02-24T15:20:18.995Z,51.20
2019-02-24T15:22:48.812Z,51.20
2019-02-24T15:25:18.688Z,51.00
2019-02-24T15:27:48.681Z,51.30
2019-02-24T15:30:25.536Z,51.60
2019-02-24T15:32:55.417Z,51.20
2019-02-24T15:35:25.286Z,51.20
2019-02-24T15:37:55.261Z,50.60
2019-02-24T15:43:33.585Z,51.00
2019-02-24T15:46:03.464Z,51.90
2019-02-24T15:48:33.288Z,52.00
2019-02-24T15:51:03.107Z,52.50
2019-02-24T15:53:32.927Z,52.00
2019-02-24T15:56:03.957Z,52.60
2019-02-24T15:58:33.883Z,53.10
2019-02-24T16:01:03.825Z,53.50
2019-02-24T16:03:33.685Z,53.60
2019-02-24T16:06:03.512Z,53.80
2019-02-24T16:08:33.317Z,53.70
2019-02-24T16:11:03.201Z,54.10
2019-02-24T16:13:32.982Z,54.50
2019-02-24T16:16:02.740Z,55.00
2019-02-24T16:18:32.569Z,55.30
2019-02-24T16:21:02.414Z,54.80
2019-02-24T16:23:32.176Z,55.20
2019-02-24T16:26:01.941Z,54.90
2019-02-24T16:28:31.855Z,55.50
2019-02-24T16:31:01.674Z,55.50
2019-02-24T16:33:31.502Z,55.60
2019-02-24T16:36:01.321Z,55.90
2019-02-24T16:38:31.149Z,56.00
2019-02-24T16:44:09.371Z,56.30
2019-02-24T16:46:39.152Z,56.40
2019-02-24T16:49:08.956Z,56.60
2019-02-24T16:51:38.714Z,57.00
2019-02-24T16:54:08.479Z,56.70
2019-02-24T16:56:38.206Z,56.50
2019-02-24T16:59:08.127Z,56.60
2019-02-24T17:01:38.055Z,57.40
2019-02-24T17:04:07.961Z,58.20
2019-02-24T17:06:37.820Z,58.70
2019-02-24T17:09:07.775Z,59.00
2019-02-24T17:11:37.580Z,59.20
2019-02-24T17:14:07.462Z,59.60
2019-02-24T17:16:37.333Z,60.30
2019-02-24T17:19:07.270Z,60.50
2019-02-24T17:21:37.176Z,59.90
2019-02-24T17:24:06.942Z,60.60
2019-02-24T17:26:36.673Z,60.80
2019-02-24T17:29:06.507Z,60.60
2019-02-24T17:31:36.391Z,60.60
2019-02-24T17:34:06.292Z,61.50
2019-02-24T17:36:36.078Z,62.40
2019-02-24T17:39:07.332Z,63.00
2019-02-24T17:41:37.243Z,63.10
2019-02-24T17:44:07.128Z,63.80
2019-02-24T17:46:37.532Z,64.30
2019-02-24T17:49:07.345Z,65.10
2019-02-24T17:51:37.151Z,65.10
2019-02-24T17:54:07.015Z,65.30
2019-02-24T17:56:36.790Z,65.50
2019-02-24T17:59:06.636Z,65.60
2019-02-24T18:01:36.586Z,65.20
2019-02-24T18:04:06.400Z,65.30
2019-02-24T18:06:36.246Z,65.00
2019-02-24T18:09:07.523Z,65.50
2019-02-24T18:11:37.410Z,65.80
2019-02-24T18:14:07.306Z,66.00
2019-02-24T18:16:37.072Z,65.70
2019-02-24T18:19:06.899Z,65.50
2019-02-24T18:21:36.767Z,65.70
2019-02-24T18:24:06.607Z,66.20
2019-02-24T18:26:36.419Z,66.00
2019-02-24T18:29:06.326Z,65.60
2019-02-24T18:31:36.214Z,65.20
2019-02-24T18:34:06.009Z,65.10
2019-02-24T18:36:35.815Z,65.30
2019-02-24T18:39:06.528Z,65.80
2019-02-24T18:41:36.362Z,66.30
2019-02-24T18:44:06.280Z,66.60
2019-02-24T18:46:36.097Z,66.80
2019-02-24T18:49:05.985Z,66.90
2019-02-24T18:51:35.947Z,66.90
2019-02-24T18:54:06.050Z,66.90
2019-02-24T18:56:36.041Z,67.40
2019-02-24T18:59:06.087Z,67.90
2019-02-24T19:01:35.951Z,68.40
2019-02-24T19:04:05.829Z,69.00
2019-02-24T19:06:39.214Z,69.50
2019-02-24T19:09:07.391Z,69.70
2019-02-24T19:11:37.356Z,70.10
2019-02-24T19:14:07.238Z,70.60
2019-02-24T19:16:37.219Z,70.90
2019-02-24T19:19:06.998Z,71.10
2019-02-24T19:21:36.876Z,71.30
2019-02-24T19:24:06.830Z,71.70
2019-02-24T19:26:36.747Z,71.90
2019-02-24T19:29:06.748Z,74.50
2019-02-24T19:31:36.759Z,73.80
2019-02-24T19:34:07.163Z,73.30
2019-02-24T19:36:37.203Z,73.20
2019-02-24T19:39:09.349Z,73.30
2019-02-24T19:41:39.238Z,73.20
2019-02-24T19:44:09.194Z,73.10
2019-02-24T19:46:39.048Z,73.40
2019-02-24T19:49:08.974Z,73.60
2019-02-24T19:51:38.931Z,73.80
2019-02-24T19:54:09.033Z,74.10
2019-02-24T19:56:39.411Z,74.10
2019-02-24T19:59:09.442Z,74.80
2019-02-24T20:01:39.350Z,74.10
2019-02-24T20:04:15.819Z,73.70
2019-02-24T20:06:41.029Z,73.50
2019-02-24T20:09:11.056Z,73.60
2019-02-24T20:11:40.994Z,73.80
2019-02-24T20:14:11.023Z,73.80
2019-02-24T20:16:41.231Z,73.90
2019-02-24T20:19:11.222Z,74.00
2019-02-24T20:21:41.172Z,74.40
2019-02-24T20:24:11.062Z,74.70
2019-02-24T20:26:41.413Z,75.10
2019-02-24T20:29:11.315Z,75.20
2019-02-24T20:31:41.308Z,75.20
2019-02-24T20:34:11.350Z,75.70
2019-02-24T20:36:41.495Z,75.90
2019-02-24T20:39:11.747Z,75.90
2019-02-24T20:41:41.958Z,75.90
2019-02-24T20:44:12.132Z,76.20
2019-02-24T20:46:42.093Z,76.40
2019-02-24T20:49:11.983Z,76.70
2019-02-24T20:51:41.914Z,77.30
2019-02-24T20:54:11.875Z,77.70
2019-02-24T20:56:41.821Z,77.40
2019-02-24T20:59:11.752Z,77.40
2019-02-24T21:01:41.658Z,77.90
2019-02-24T21:04:11.474Z,78.40
2019-02-24T21:06:41.389Z,78.60
2019-02-24T21:09:11.393Z,78.70
2019-02-24T21:11:41.331Z,79.00
2019-02-24T21:14:11.226Z,79.60
2019-02-24T21:16:41.092Z,79.70
2019-02-24T21:19:10.968Z,80.10
2019-02-24T21:21:40.781Z,80.40
2019-02-24T21:24:10.737Z,81.20
2019-02-24T21:26:40.642Z,81.00
2019-02-24T21:29:10.833Z,81.50
2019-02-24T21:31:40.988Z,81.60
2019-02-24T21:34:10.837Z,81.70
2019-02-24T21:36:40.849Z,82.10
2019-02-24T21:39:11.124Z,82.00
2019-02-24T21:41:41.138Z,81.90
2019-02-24T21:44:11.013Z,82.20
2019-02-24T21:46:40.890Z,82.70
2019-02-24T21:49:10.774Z,82.80
2019-02-24T21:51:40.663Z,83.00
2019-02-24T21:54:10.649Z,83.30
2019-02-24T21:56:40.625Z,83.60
2019-02-24T21:59:10.553Z,83.90
2019-02-24T22:01:40.915Z,84.30
2019-02-24T22:04:10.788Z,84.30
2019-02-24T22:06:40.653Z,84.30
2019-02-24T22:09:11.281Z,84.50
2019-02-24T22:11:41.247Z,84.80
2019-02-24T22:14:11.244Z,85.10
2019-02-24T22:16:41.233Z,85.30
2019-02-24T22:19:11.231Z,85.60
2019-02-24T22:21:41.299Z,85.90
2019-02-24T22:24:11.230Z,86.10
2019-02-24T22:26:44.145Z,86.10
2019-02-24T22:29:14.673Z,86.20
2019-02-24T22:31:44.662Z,86.00
2019-02-24T22:34:14.527Z,86.10
2019-02-24T22:36:44.663Z,86.00
2019-02-24T22:39:14.687Z,86.40
2019-02-24T22:41:44.587Z,86.70
2019-02-24T22:44:14.636Z,86.60
2019-02-24T22:46:46.144Z,86.70
2019-02-24T22:49:16.111Z,87.00
2019-02-24T22:51:45.941Z,87.30
2019-02-24T22:54:15.925Z,87.40
2019-02-24T22:56:45.795Z,87.50
2019-02-24T22:59:15.689Z,87.70
2019-02-24T23:01:47.044Z,87.90
2019-02-24T23:04:17.127Z,87.70
2019-02-24T23:06:47.001Z,87.90
2019-02-24T23:09:21.712Z,88.10
2019-02-24T23:11:51.580Z,88.60
2019-02-24T23:14:21.539Z,88.80
2019-02-24T23:16:51.545Z,89.00
2019-02-24T23:19:21.424Z,89.00
2019-02-24T23:21:51.343Z,89.00
2019-02-24T23:24:21.314Z,89.10
2019-02-24T23:26:51.293Z,89.40
2019-02-24T23:29:21.093Z,89.30
2019-02-24T23:31:51.240Z,89.10
2019-02-24T23:34:40.275Z,88.90
2019-02-24T23:37:10.290Z,89.00
2019-02-24T23:39:40.262Z,89.40
2019-02-24T23:42:10.150Z,89.60
2019-02-24T23:44:40.067Z,89.80
2019-02-24T23:47:10.024Z,90.00
2019-02-24T23:49:39.921Z,90.20
2019-02-24T23:52:09.842Z,90.30
2019-02-24T23:54:41.422Z,90.30
2019-02-24T23:57:11.172Z,90.30
2019-02-24T23:59:41.142Z,90.30
